Time;durP1;ratioP1;P1;durP2;ratioP2;P2;SDS_P1;SDS_P2;PMS_P1;PMS_P2;Temp;Humidity;BMP_temperature;BMP_pressure;BME280_temperature;BME280_humidity;BME280_pressure;Samples;Min_cycle;Max_cycle;Signal;HPM_P1;HPM_P2
2022/08/17 00:00:21;;;;;;;;;18.67;17.67;;;;;;;;5121761;27;45437;-66
2022/08/17 00:02:55;;;;;;;;;15.67;15.00;;;;;;;;5123112;27;45371;-66
2022/08/17 00:05:20;;;;;;;;;18.00;18.00;;;;;;;;5117380;27;45462;-66
2022/08/17 00:07:45;;;;;;;;;15.33;14.00;;;;;;;;5117287;27;45306;-66
2022/08/17 00:10:11;;;;;;;;;21.00;15.67;;;;;;;;5120611;27;46226;-66
2022/08/17 00:12:40;;;;;;;;;16.00;16.00;;;;;;;;5121342;27;45451;-66
2022/08/17 00:15:05;;;;;;;;;16.25;15.25;;;;;;;;5122862;27;45506;-66
2022/08/17 00:17:30;;;;;;;;;7.33;7.33;;;;;;;;5120988;27;45368;-66
2022/08/17 00:19:56;;;;;;;;;19.75;14.50;;;;;;;;5110389;27;45596;-66
2022/08/17 00:22:21;;;;;;;;;18.75;17.25;;;;;;;;5118943;27;45405;-66
2022/08/17 00:24:46;;;;;;;;;18.50;18.50;;;;;;;;5112297;27;45423;-66
2022/08/17 00:27:11;;;;;;;;;20.00;20.00;;;;;;;;5120324;27;45329;-66
2022/08/17 00:29:36;;;;;;;;;18.75;17.75;;;;;;;;5120364;27;45485;-66
2022/08/17 00:32:02;;;;;;;;;22.25;20.25;;;;;;;;5119686;27;45316;-66
2022/08/17 00:34:27;;;;;;;;;27.00;23.00;;;;;;;;5116653;27;45138;-66
2022/08/17 00:36:52;;;;;;;;;19.50;19.50;;;;;;;;5121561;27;45357;-66
2022/08/17 00:39:17;;;;;;;;;20.75;19.75;;;;;;;;5118842;27;45667;-66
2022/08/17 00:41:43;;;;;;;;;21.00;17.25;;;;;;;;5122656;27;45406;-66
2022/08/17 00:44:08;;;;;;;;;20.50;19.75;;;;;;;;5125162;27;45443;-66
2022/08/17 00:46:38;;;;;;;;;23.50;23.25;;;;;;;;5123743;27;45322;-65
2022/08/17 00:49:04;;;;;;;;;21.25;20.50;;;;;;;;5125117;27;47669;-65
2022/08/17 00:51:32;;;;;;;;;21.25;18.50;;;;;;;;5124776;27;45326;-65
2022/08/17 00:54:18;;;;;;;;;27.50;22.50;;;;;;;;5108302;27;45605;-65
2022/08/17 00:56:45;;;;;;;;;24.25;24.25;;;;;;;;5119386;27;45516;-66
2022/08/17 00:59:12;;;;;;;;;26.00;23.50;;;;;;;;5109586;27;46217;-65
2022/08/17 01:01:38;;;;;;;;;25.75;25.25;;;;;;;;5122222;27;45398;-65
2022/08/17 01:04:04;;;;;;;;;22.25;18.75;;;;;;;;5117589;27;45339;-65
2022/08/17 01:06:30;;;;;;;;;25.50;23.00;;;;;;;;5125380;27;45392;-66
2022/08/17 01:08:56;;;;;;;;;23.25;23.25;;;;;;;;5117537;27;46857;-66
2022/08/17 01:11:22;;;;;;;;;23.00;17.75;;;;;;;;5125260;27;45419;-66
2022/08/17 01:13:47;;;;;;;;;17.50;17.50;;;;;;;;5122045;27;45254;-66
2022/08/17 01:16:15;;;;;;;;;20.00;19.25;;;;;;;;5124083;27;45260;-66
2022/08/17 01:18:42;;;;;;;;;21.00;21.00;;;;;;;;5124983;27;45731;-65
2022/08/17 01:21:18;;;;;;;;;19.50;19.00;;;;;;;;5123438;27;45535;-66
2022/08/17 01:23:43;;;;;;;;;20.50;20.00;;;;;;;;5107066;27;45329;-65
2022/08/17 01:26:08;;;;;;;;;21.25;19.75;;;;;;;;5117665;27;45402;-65
2022/08/17 01:28:34;;;;;;;;;21.00;21.00;;;;;;;;5120564;27;45449;-66
2022/08/17 01:31:00;;;;;;;;;20.25;19.00;;;;;;;;5120000;27;45229;-65
2022/08/17 01:33:25;;;;;;;;;18.67;16.00;;;;;;;;5115534;27;45378;-67
2022/08/17 01:35:51;;;;;;;;;17.33;17.33;;;;;;;;5123496;27;45546;-65
2022/08/17 01:38:17;;;;;;;;;21.25;21.25;;;;;;;;5115833;27;46377;-65
2022/08/17 01:40:45;;;;;;;;;18.33;18.33;;;;;;;;5125323;27;45379;-66
2022/08/17 01:43:12;;;;;;;;;20.50;18.25;;;;;;;;5116992;27;45425;-65
2022/08/17 01:45:50;;;;;;;;;15.33;15.33;;;;;;;;5126324;27;45660;-65
2022/08/17 01:48:16;;;;;;;;;15.50;14.00;;;;;;;;5119521;27;45432;-65
2022/08/17 01:50:43;;;;;;;;;16.00;14.67;;;;;;;;5124699;27;45231;-65
2022/08/17 01:53:12;;;;;;;;;18.25;17.50;;;;;;;;5122192;27;45334;-66
2022/08/17 01:55:56;;;;;;;;;15.33;15.33;;;;;;;;5126230;27;45355;-65
2022/08/17 01:58:21;;;;;;;;;23.50;23.00;;;;;;;;5118535;27;47748;-66
2022/08/17 02:00:50;;;;;;;;;16.33;15.33;;;;;;;;5117346;27;45412;-65
2022/08/17 02:03:16;;;;;;;;;24.75;22.00;;;;;;;;5120777;27;45320;-65
2022/08/17 02:05:41;;;;;;;;;17.75;17.75;;;;;;;;5123722;27;45295;-65
2022/08/17 02:08:06;;;;;;;;;19.50;19.50;;;;;;;;5119870;27;45439;-66
2022/08/17 02:10:32;;;;;;;;;21.00;21.00;;;;;;;;5123426;27;45345;-64
2022/08/17 02:12:58;;;;;;;;;22.75;20.75;;;;;;;;5122097;27;45205;-66
2022/08/17 02:15:23;;;;;;;;;23.75;20.75;;;;;;;;5123626;27;45463;-67
2022/08/17 02:17:48;;;;;;;;;21.50;21.50;;;;;;;;5121524;27;46596;-64
2022/08/17 02:20:13;;;;;;;;;21.75;20.00;;;;;;;;5123005;27;45416;-66
2022/08/17 02:22:41;;;;;;;;;19.00;19.00;;;;;;;;5120783;27;45525;-67
2022/08/17 02:25:08;;;;;;;;;24.00;20.75;;;;;;;;5116163;27;45372;-66
2022/08/17 02:27:33;;;;;;;;;27.75;25.25;;;;;;;;5115369;27;45489;-67
2022/08/17 02:29:58;;;;;;;;;22.50;20.00;;;;;;;;5121000;27;45351;-66
2022/08/17 02:32:25;;;;;;;;;26.00;22.75;;;;;;;;5118622;27;45540;-66
2022/08/17 02:34:50;;;;;;;;;21.75;20.25;;;;;;;;5113416;27;46050;-66
2022/08/17 02:37:18;;;;;;;;;25.25;21.00;;;;;;;;5120157;27;45502;-67
2022/08/17 02:39:44;;;;;;;;;23.00;21.25;;;;;;;;5116705;27;45288;-66
2022/08/17 02:42:10;;;;;;;;;24.25;21.25;;;;;;;;5121277;27;45372;-64
2022/08/17 02:44:35;;;;;;;;;21.00;21.00;;;;;;;;5120129;27;45293;-67
2022/08/17 02:47:01;;;;;;;;;17.00;16.67;;;;;;;;5121984;27;45569;-67
2022/08/17 02:49:26;;;;;;;;;21.25;21.25;;;;;;;;5121475;27;45338;-67
2022/08/17 02:51:51;;;;;;;;;18.67;17.00;;;;;;;;5122557;27;45393;-65
2022/08/17 02:54:16;;;;;;;;;21.67;18.00;;;;;;;;5124466;27;45357;-66
2022/08/17 02:56:41;;;;;;;;;21.75;21.00;;;;;;;;5122757;27;45482;-65
2022/08/17 02:59:07;;;;;;;;;19.33;19.33;;;;;;;;5114059;27;45439;-65
2022/08/17 03:01:32;;;;;;;;;27.00;20.33;;;;;;;;5121664;27;45464;-65
2022/08/17 03:03:57;;;;;;;;;24.00;20.00;;;;;;;;5120300;27;45392;-65
2022/08/17 03:06:22;;;;;;;;;25.00;24.25;;;;;;;;5122869;27;45450;-65
2022/08/17 03:08:48;;;;;;;;;21.50;20.75;;;;;;;;5116847;27;45362;-65
2022/08/17 03:11:13;;;;;;;;;19.67;19.67;;;;;;;;5122051;27;45421;-65
2022/08/17 03:13:38;;;;;;;;;22.75;21.00;;;;;;;;5121155;27;45756;-65
2022/08/17 03:16:04;;;;;;;;;22.25;21.25;;;;;;;;5119962;27;46567;-65
2022/08/17 03:18:29;;;;;;;;;23.25;19.50;;;;;;;;5123822;27;45389;-65
2022/08/17 03:20:56;;;;;;;;;23.75;21.50;;;;;;;;5123083;27;45576;-65
2022/08/17 03:23:21;;;;;;;;;23.50;22.00;;;;;;;;5114651;27;45181;-65
2022/08/17 03:25:46;;;;;;;;;23.00;21.75;;;;;;;;5115565;27;46105;-65
2022/08/17 03:28:12;;;;;;;;;19.25;19.00;;;;;;;;5115638;27;45208;-65
2022/08/17 03:30:37;;;;;;;;;23.25;20.50;;;;;;;;5122207;27;45388;-65
2022/08/17 03:33:04;;;;;;;;;13.50;12.25;;;;;;;;5112989;27;45208;-65
2022/08/17 03:35:30;;;;;;;;;23.25;19.75;;;;;;;;5119415;27;45402;-65
2022/08/17 03:37:56;;;;;;;;;23.75;23.75;;;;;;;;5114263;27;45492;-65
2022/08/17 03:40:21;;;;;;;;;26.50;23.00;;;;;;;;5120048;27;45406;-65
2022/08/17 03:42:47;;;;;;;;;28.75;25.75;;;;;;;;5117839;27;45318;-65
2022/08/17 03:45:14;;;;;;;;;19.75;18.75;;;;;;;;5120715;27;46326;-65
2022/08/17 03:58:37;;;;;;;;;27.50;27.50;;;;;;;;5116580;27;45369;-65
2022/08/17 04:01:03;;;;;;;;;24.25;24.25;;;;;;;;5116913;27;45409;-65
2022/08/17 04:03:28;;;;;;;;;22.75;22.25;;;;;;;;5119515;27;45315;-65
2022/08/17 04:05:53;;;;;;;;;28.00;23.75;;;;;;;;5121987;27;45603;-65
2022/08/17 04:08:19;;;;;;;;;24.50;24.00;;;;;;;;5122588;27;45348;-65
2022/08/17 04:10:45;;;;;;;;;24.00;20.50;;;;;;;;5118037;27;45401;-65
2022/08/17 04:13:11;;;;;;;;;24.25;22.50;;;;;;;;5121073;27;45326;-65
2022/08/17 04:15:36;;;;;;;;;23.25;23.25;;;;;;;;5117674;27;46563;-65
2022/08/17 04:18:01;;;;;;;;;19.50;19.00;;;;;;;;5122637;27;45228;-65
2022/08/17 04:20:27;;;;;;;;;22.75;22.75;;;;;;;;5121588;27;45532;-65
2022/08/17 04:22:55;;;;;;;;;23.25;23.25;;;;;;;;5118083;27;45237;-65
2022/08/17 04:25:20;;;;;;;;;24.50;20.00;;;;;;;;5113785;27;46349;-65
2022/08/17 04:27:47;;;;;;;;;21.25;21.25;;;;;;;;5111917;27;45325;-65
2022/08/17 04:30:12;;;;;;;;;23.25;21.00;;;;;;;;5120555;27;45464;-65
2022/08/17 04:32:58;;;;;;;;;25.50;23.25;;;;;;;;5116279;27;45481;-65
2022/08/17 04:35:25;;;;;;;;;23.00;22.00;;;;;;;;5122722;27;45495;-65
2022/08/17 04:37:51;;;;;;;;;19.00;18.33;;;;;;;;5117844;27;45259;-65
2022/08/17 04:43:04;;;;;;;;;20.75;20.50;;;;;;;;5113919;27;45357;-65
2022/08/17 04:45:30;;;;;;;;;25.50;24.75;;;;;;;;5116131;27;46204;-66
2022/08/17 04:47:55;;;;;;;;;22.00;20.50;;;;;;;;5114965;27;45398;-65
2022/08/17 04:50:20;;;;;;;;;19.67;19.67;;;;;;;;5121505;27;45351;-65
2022/08/17 04:52:45;;;;;;;;;19.00;18.33;;;;;;;;5110371;27;45295;-66
2022/08/17 04:55:10;;;;;;;;;19.25;19.25;;;;;;;;5117981;27;46584;-66
2022/08/17 04:57:35;;;;;;;;;18.33;17.67;;;;;;;;5113219;27;44731;-66
2022/08/17 05:00:01;;;;;;;;;17.50;17.50;;;;;;;;5118454;27;45510;-66
2022/08/17 05:02:27;;;;;;;;;21.00;21.00;;;;;;;;5115795;27;45460;-66
2022/08/17 05:04:52;;;;;;;;;23.25;22.25;;;;;;;;5118530;27;46491;-66
2022/08/17 05:07:17;;;;;;;;;21.75;21.25;;;;;;;;5122071;27;45230;-66
2022/08/17 05:09:42;;;;;;;;;25.75;24.75;;;;;;;;5120714;27;45342;-66
2022/08/17 05:12:07;;;;;;;;;26.00;19.00;;;;;;;;5118660;27;45502;-66
2022/08/17 05:14:32;;;;;;;;;24.75;21.75;;;;;;;;5107977;27;47766;-66
2022/08/17 05:16:58;;;;;;;;;18.50;18.25;;;;;;;;5117854;27;45364;-66
2022/08/17 05:19:23;;;;;;;;;19.25;19.25;;;;;;;;5111022;27;45355;-65
2022/08/17 05:21:50;;;;;;;;;21.25;19.00;;;;;;;;5120091;27;45420;-66
2022/08/17 05:24:15;;;;;;;;;26.50;24.50;;;;;;;;5113794;27;46437;-65
2022/08/17 05:26:41;;;;;;;;;20.50;16.25;;;;;;;;5120374;27;45219;-66
2022/08/17 05:29:06;;;;;;;;;21.00;21.00;;;;;;;;5118477;27;45456;-65
2022/08/17 05:31:31;;;;;;;;;21.00;19.25;;;;;;;;5123032;27;45494;-65
2022/08/17 05:33:57;;;;;;;;;25.00;20.75;;;;;;;;5120991;27;47578;-66
2022/08/17 05:36:22;;;;;;;;;22.50;22.00;;;;;;;;5124034;27;45270;-66
2022/08/17 05:38:47;;;;;;;;;25.25;21.75;;;;;;;;5124926;27;45290;-66
2022/08/17 05:41:12;;;;;;;;;22.00;21.00;;;;;;;;5125668;27;45544;-66
2022/08/17 05:43:39;;;;;;;;;24.25;23.00;;;;;;;;5108330;27;45245;-66
2022/08/17 05:46:17;;;;;;;;;24.50;23.25;;;;;;;;5118328;27;45225;-66
2022/08/17 05:48:44;;;;;;;;;24.00;23.00;;;;;;;;5112456;27;45331;-66
2022/08/17 05:51:28;;;;;;;;;26.25;23.50;;;;;;;;5119655;27;45540;-66
2022/08/17 05:53:57;;;;;;;;;27.00;27.00;;;;;;;;5110964;27;46655;-66
2022/08/17 05:56:31;;;;;;;;;28.50;25.25;;;;;;;;5121827;27;45324;-66
2022/08/17 05:59:08;;;;;;;;;26.75;24.50;;;;;;;;5114200;27;45507;-66
2022/08/17 06:01:33;;;;;;;;;21.00;21.00;;;;;;;;5124596;27;45620;-66
2022/08/17 06:03:58;;;;;;;;;22.00;22.00;;;;;;;;5117969;27;45401;-66
2022/08/17 06:06:35;;;;;;;;;23.25;23.25;;;;;;;;5119472;27;45696;-66
2022/08/17 06:09:10;;;;;;;;;23.75;21.25;;;;;;;;5122744;27;45347;-66
2022/08/17 06:11:43;;;;;;;;;24.25;21.75;;;;;;;;5124022;27;45273;-65
2022/08/17 06:14:14;;;;;;;;;24.25;23.75;;;;;;;;5123525;27;46474;-65
2022/08/17 06:16:42;;;;;;;;;28.50;25.00;;;;;;;;5118266;27;45456;-65
2022/08/17 06:19:13;;;;;;;;;32.75;30.00;;;;;;;;5111109;27;45206;-66
2022/08/17 06:21:41;;;;;;;;;27.25;26.00;;;;;;;;5119192;27;45568;-65
2022/08/17 06:24:13;;;;;;;;;33.50;28.00;;;;;;;;5113047;27;45582;-65
2022/08/17 06:26:40;;;;;;;;;30.75;27.50;;;;;;;;5119731;27;45401;-65
2022/08/17 06:29:14;;;;;;;;;26.25;24.75;;;;;;;;5116361;27;45331;-65
2022/08/17 06:31:41;;;;;;;;;22.75;22.50;;;;;;;;5120887;27;45528;-65
2022/08/17 06:34:08;;;;;;;;;28.50;28.00;;;;;;;;5117752;27;46933;-66
2022/08/17 06:36:33;;;;;;;;;25.00;23.00;;;;;;;;5120730;27;45356;-65
2022/08/17 06:39:15;;;;;;;;;21.00;20.50;;;;;;;;5120016;27;45306;-65
2022/08/17 06:41:59;;;;;;;;;26.00;22.00;;;;;;;;5123366;27;45456;-65
2022/08/17 06:44:35;;;;;;;;;24.75;24.00;;;;;;;;5106289;27;45515;-66
2022/08/17 06:47:11;;;;;;;;;14.75;13.00;;;;;;;;5116982;27;45241;-65
2022/08/17 06:49:45;;;;;;;;;24.25;22.75;;;;;;;;5107934;27;45358;-65
2022/08/17 06:52:23;;;;;;;;;24.75;23.25;;;;;;;;5118861;27;45234;-65
2022/08/17 06:54:48;;;;;;;;;28.50;25.50;;;;;;;;5113044;27;46122;-65
2022/08/17 06:57:14;;;;;;;;;22.75;20.25;;;;;;;;5119569;27;45308;-65
2022/08/17 06:59:46;;;;;;;;;25.75;24.50;;;;;;;;5112739;27;45242;-65
2022/08/17 07:02:14;;;;;;;;;18.25;18.25;;;;;;;;5118572;27;45224;-66
2022/08/17 07:04:42;;;;;;;;;19.25;19.25;;;;;;;;5115679;27;45326;-65
2022/08/17 07:09:55;;;;;;;;;19.00;19.00;;;;;;;;5110365;27;45336;-66
2022/08/17 07:12:26;;;;;;;;;24.50;22.00;;;;;;;;5121808;27;45198;-66
2022/08/17 07:14:55;;;;;;;;;21.50;20.25;;;;;;;;5122676;27;46420;-65
2022/08/17 07:17:21;;;;;;;;;23.50;21.25;;;;;;;;5123024;27;45291;-66
2022/08/17 07:19:48;;;;;;;;;23.00;23.00;;;;;;;;5108774;27;45249;-65
2022/08/17 07:22:26;;;;;;;;;25.75;22.50;;;;;;;;5118836;27;45608;-65
2022/08/17 07:24:59;;;;;;;;;28.75;25.50;;;;;;;;5111498;27;45610;-66
2022/08/17 07:27:30;;;;;;;;;20.25;20.25;;;;;;;;5119064;27;45426;-66
2022/08/17 07:30:16;;;;;;;;;26.50;23.50;;;;;;;;5112942;27;45308;-65
2022/08/17 07:32:47;;;;;;;;;27.75;25.00;;;;;;;;5117319;27;45172;-66
2022/08/17 07:35:17;;;;;;;;;25.50;22.75;;;;;;;;5118492;27;46205;-66
2022/08/17 07:38:02;;;;;;;;;33.00;30.00;;;;;;;;5119389;27;45251;-65
2022/08/17 07:40:29;;;;;;;;;25.75;25.25;;;;;;;;5121535;27;45316;-66
2022/08/17 07:43:00;;;;;;;;;25.50;24.00;;;;;;;;5113295;27;45330;-66
2022/08/17 07:48:20;;;;;;;;;26.00;25.75;;;;;;;;5112876;27;45285;-65
2022/08/17 07:50:45;;;;;;;;;22.25;21.75;;;;;;;;5108705;27;45398;-66
2022/08/17 07:53:15;;;;;;;;;20.67;20.00;;;;;;;;5111122;27;45139;-65
2022/08/17 07:55:40;;;;;;;;;20.00;20.00;;;;;;;;5121787;27;46861;-66
2022/08/17 07:58:05;;;;;;;;;17.67;17.33;;;;;;;;5114577;27;45372;-66
2022/08/17 08:00:32;;;;;;;;;19.00;18.00;;;;;;;;5116311;27;45351;-66
2022/08/17 08:03:00;;;;;;;;;19.75;19.75;;;;;;;;5118540;27;45440;-66
2022/08/17 08:05:28;;;;;;;;;20.67;20.67;;;;;;;;5116562;27;45338;-66
2022/08/17 08:08:01;;;;;;;;;21.00;21.00;;;;;;;;5116730;27;45369;-66
2022/08/17 08:10:26;;;;;;;;;18.25;16.25;;;;;;;;5121372;27;45317;-66
2022/08/17 08:13:05;;;;;;;;;18.00;18.00;;;;;;;;5120550;27;45225;-66
2022/08/17 08:15:38;;;;;;;;;22.75;16.75;;;;;;;;5122193;27;45641;-66
2022/08/17 08:18:17;;;;;;;;;16.67;16.67;;;;;;;;5110499;27;45422;-67
2022/08/17 08:21:00;;;;;;;;;22.75;21.25;;;;;;;;5115882;27;45481;-66
2022/08/17 08:23:28;;;;;;;;;18.00;17.67;;;;;;;;5111721;27;45421;-67
2022/08/17 08:26:01;;;;;;;;;15.00;15.00;;;;;;;;5117627;27;46781;-66
2022/08/17 08:28:50;;;;;;;;;19.33;19.33;;;;;;;;5117875;27;45396;-66
2022/08/17 08:31:23;;;;;;;;;23.25;23.25;;;;;;;;5112443;27;45423;-67
2022/08/17 08:33:55;;;;;;;;;21.00;18.67;;;;;;;;5113065;27;45315;-67
2022/08/17 08:36:36;;;;;;;;;22.67;21.00;;;;;;;;5118880;27;45331;-66
2022/08/17 08:39:21;;;;;;;;;20.67;18.67;;;;;;;;5117438;27;45304;-66
2022/08/17 08:41:46;;;;;;;;;20.67;18.33;;;;;;;;5118476;27;45261;-66
2022/08/17 08:44:22;;;;;;;;;23.50;22.50;;;;;;;;5104832;27;45223;-66
2022/08/17 08:47:01;;;;;;;;;25.33;20.33;;;;;;;;5118554;27;47417;-66
2022/08/17 08:49:36;;;;;;;;;22.75;21.00;;;;;;;;5104707;27;45390;-67
2022/08/17 08:52:02;;;;;;;;;26.50;23.50;;;;;;;;5116685;27;45390;-66
2022/08/17 08:54:34;;;;;;;;;18.75;18.75;;;;;;;;5107902;27;45348;-66
2022/08/17 08:57:31;;;;;;;;;23.00;22.50;;;;;;;;5118107;27;46692;-66
2022/08/17 08:59:59;;;;;;;;;21.25;20.75;;;;;;;;5082415;27;45271;-66
2022/08/17 09:02:27;;;;;;;;;25.00;22.25;;;;;;;;5119562;27;45298;-66
2022/08/17 09:05:10;;;;;;;;;20.50;20.25;;;;;;;;5125311;27;45241;-66
2022/08/17 09:07:38;;;;;;;;;22.75;21.50;;;;;;;;5123450;27;45257;-66
2022/08/17 09:10:12;;;;;;;;;26.50;25.00;;;;;;;;5125238;27;45552;-66
2022/08/17 09:12:53;;;;;;;;;25.75;22.75;;;;;;;;5120726;27;45370;-66
2022/08/17 09:15:41;;;;;;;;;18.00;16.67;;;;;;;;5120487;27;45385;-66
2022/08/17 09:18:15;;;;;;;;;25.50;22.25;;;;;;;;5112172;27;45457;-66
2022/08/17 09:20:45;;;;;;;;;23.75;22.50;;;;;;;;5122762;27;45223;-66
2022/08/17 09:23:21;;;;;;;;;20.00;20.00;;;;;;;;5125969;27;45358;-66
2022/08/17 09:25:58;;;;;;;;;25.25;23.50;;;;;;;;5122743;27;45233;-66
2022/08/17 09:28:29;;;;;;;;;23.25;22.00;;;;;;;;5117065;27;45472;-66
2022/08/17 09:31:01;;;;;;;;;24.00;21.25;;;;;;;;5117273;27;45338;-66
2022/08/17 09:33:26;;;;;;;;;25.75;24.25;;;;;;;;5118005;27;45336;-66
2022/08/17 09:36:01;;;;;;;;;21.75;20.75;;;;;;;;5119982;27;45580;-66
2022/08/17 09:38:39;;;;;;;;;17.50;17.50;;;;;;;;5122529;27;46430;-66
2022/08/17 09:41:10;;;;;;;;;28.50;24.75;;;;;;;;5120125;27;45340;-66
2022/08/17 09:43:53;;;;;;;;;24.50;23.75;;;;;;;;5118311;27;45249;-66
2022/08/17 09:46:40;;;;;;;;;25.25;25.25;;;;;;;;5120500;27;45330;-65
2022/08/17 09:49:13;;;;;;;;;26.00;26.00;;;;;;;;5114879;27;46332;-65
2022/08/17 09:51:43;;;;;;;;;22.75;22.75;;;;;;;;5122200;27;45450;-65
2022/08/17 09:54:17;;;;;;;;;22.50;22.50;;;;;;;;5124042;27;45379;-67
2022/08/17 09:57:00;;;;;;;;;25.00;23.75;;;;;;;;5124869;27;45405;-67
2022/08/17 09:59:26;;;;;;;;;27.00;24.50;;;;;;;;5124567;27;45619;-67
2022/08/17 10:02:00;;;;;;;;;27.50;26.50;;;;;;;;5122511;27;45853;-67
2022/08/17 10:04:29;;;;;;;;;27.00;25.25;;;;;;;;5113256;27;45449;-67
2022/08/17 10:06:57;;;;;;;;;28.50;25.25;;;;;;;;5124402;27;45227;-67
2022/08/17 10:09:37;;;;;;;;;21.50;21.50;;;;;;;;5114646;27;45515;-67
2022/08/17 10:12:22;;;;;;;;;27.50;25.75;;;;;;;;5123381;27;45384;-66
2022/08/17 10:15:06;;;;;;;;;28.25;24.50;;;;;;;;5124164;27;45210;-66
2022/08/17 10:17:32;;;;;;;;;26.00;26.00;;;;;;;;5122152;27;45633;-66
2022/08/17 10:20:01;;;;;;;;;28.00;22.50;;;;;;;;5119471;27;45404;-66
2022/08/17 10:28:04;;;;;;;;;24.00;24.00;;;;;;;;5117983;27;45382;-66
2022/08/17 10:30:32;;;;;;;;;21.75;21.75;;;;;;;;5122309;27;46774;-67
2022/08/17 10:33:00;;;;;;;;;23.75;22.75;;;;;;;;5116249;27;45415;-66
2022/08/17 10:35:28;;;;;;;;;24.00;21.50;;;;;;;;5119106;27;45273;-66
2022/08/17 10:38:14;;;;;;;;;23.50;21.75;;;;;;;;5117598;27;45311;-66
2022/08/17 10:40:45;;;;;;;;;23.50;20.75;;;;;;;;5115244;27;45419;-66
2022/08/17 10:43:14;;;;;;;;;23.00;23.00;;;;;;;;5116762;27;45350;-66
2022/08/17 10:45:45;;;;;;;;;22.75;22.50;;;;;;;;5118501;27;45340;-66
2022/08/17 10:48:11;;;;;;;;;21.25;20.25;;;;;;;;5114548;27;45357;-66
2022/08/17 10:50:42;;;;;;;;;24.75;24.75;;;;;;;;5120133;27;46392;-66
2022/08/17 10:53:08;;;;;;;;;13.00;12.50;;;;;;;;5117959;27;45367;-66
2022/08/17 10:55:33;;;;;;;;;24.50;24.50;;;;;;;;5121802;27;45531;-66
2022/08/17 10:58:19;;;;;;;;;32.50;31.50;;;;;;;;5120462;27;45437;-66
2022/08/17 11:00:52;;;;;;;;;25.25;25.00;;;;;;;;5123332;27;46249;-67
2022/08/17 11:03:20;;;;;;;;;29.25;29.25;;;;;;;;5120268;27;45331;-66
2022/08/17 11:06:05;;;;;;;;;23.00;21.50;;;;;;;;5122989;27;45397;-66
2022/08/17 11:08:30;;;;;;;;;24.25;24.00;;;;;;;;5113842;27;45822;-65
2022/08/17 11:11:14;;;;;;;;;27.50;25.25;;;;;;;;5119868;27;45872;-65
2022/08/17 11:14:08;;;;;;;;;27.50;22.50;;;;;;;;5118686;27;45493;-67
2022/08/17 11:16:52;;;;;;;;;29.50;28.25;;;;;;;;5118055;27;45298;-66
2022/08/17 11:19:35;;;;;;;;;24.75;23.00;;;;;;;;5119562;27;45517;-66
2022/08/17 11:22:12;;;;;;;;;31.75;27.50;;;;;;;;5116052;27;45686;-66
2022/08/17 11:24:39;;;;;;;;;24.50;24.50;;;;;;;;5111237;27;45501;-66
2022/08/17 11:27:18;;;;;;;;;28.50;27.25;;;;;;;;5119621;27;45467;-66
2022/08/17 11:29:52;;;;;;;;;29.25;28.75;;;;;;;;5123662;27;45244;-66
2022/08/17 11:32:29;;;;;;;;;29.25;26.00;;;;;;;;5117913;27;46208;-66
2022/08/17 11:35:06;;;;;;;;;31.00;27.25;;;;;;;;5114477;27;45845;-66
2022/08/17 11:37:49;;;;;;;;;27.50;25.50;;;;;;;;5112451;27;45510;-65
2022/08/17 11:40:20;;;;;;;;;32.75;30.00;;;;;;;;5118618;27;45238;-67
2022/08/17 11:42:45;;;;;;;;;31.75;29.25;;;;;;;;5117971;27;45413;-66
2022/08/17 11:45:29;;;;;;;;;29.25;25.75;;;;;;;;5114624;27;45401;-66
2022/08/17 11:53:48;;;;;;;;;26.50;26.50;;;;;;;;5118369;27;45334;-66
2022/08/17 11:56:33;;;;;;;;;32.50;28.25;;;;;;;;5121514;27;45428;-65
2022/08/17 11:58:59;;;;;;;;;33.25;30.50;;;;;;;;5113737;27;45524;-67
2022/08/17 12:01:25;;;;;;;;;28.50;27.00;;;;;;;;5119019;27;45197;-65
2022/08/17 12:03:55;;;;;;;;;26.00;26.00;;;;;;;;5121643;27;46337;-65
2022/08/17 12:06:29;;;;;;;;;29.25;27.25;;;;;;;;5121681;27;45491;-65
2022/08/17 12:09:20;;;;;;;;;30.50;29.75;;;;;;;;5103786;27;45421;-66
2022/08/17 12:11:54;;;;;;;;;31.75;27.00;;;;;;;;5116700;27;45878;-65
2022/08/17 12:14:28;;;;;;;;;28.00;28.00;;;;;;;;5115963;27;45546;-66
2022/08/17 12:16:57;;;;;;;;;32.50;31.25;;;;;;;;5115268;27;45427;-65
2022/08/17 12:19:26;;;;;;;;;37.75;30.25;;;;;;;;5113036;27;45307;-66
2022/08/17 12:21:56;;;;;;;;;25.75;25.75;;;;;;;;5118350;27;45369;-66
2022/08/17 12:24:44;;;;;;;;;30.75;29.50;;;;;;;;5120388;27;45371;-66
2022/08/17 12:27:10;;;;;;;;;38.75;33.75;;;;;;;;5119991;27;45354;-66
2022/08/17 12:29:35;;;;;;;;;38.00;32.00;;;;;;;;5123036;27;45528;-66
2022/08/17 12:32:02;;;;;;;;;45.50;39.50;;;;;;;;5120215;27;45326;-66
2022/08/17 12:34:33;;;;;;;;;29.75;28.00;;;;;;;;5105712;27;45381;-66
2022/08/17 12:37:00;;;;;;;;;33.25;29.50;;;;;;;;5124755;27;45360;-66
2022/08/17 12:39:26;;;;;;;;;29.00;28.50;;;;;;;;5109039;27;45337;-66
2022/08/17 12:41:55;;;;;;;;;28.50;26.00;;;;;;;;5126886;27;45267;-66
2022/08/17 12:44:26;;;;;;;;;26.75;26.00;;;;;;;;5113189;27;46014;-65
2022/08/17 12:47:06;;;;;;;;;34.50;32.75;;;;;;;;5118229;27;45349;-66
2022/08/17 12:49:34;;;;;;;;;29.75;27.50;;;;;;;;5116065;27;45375;-66
2022/08/17 12:52:19;;;;;;;;;28.25;28.00;;;;;;;;5122023;27;45244;-66
2022/08/17 12:54:51;;;;;;;;;27.25;26.50;;;;;;;;5107014;27;47020;-66
2022/08/17 12:57:22;;;;;;;;;28.75;27.50;;;;;;;;5118983;27;45410;-66
2022/08/17 12:59:57;;;;;;;;;31.00;30.25;;;;;;;;5122316;27;45260;-66
2022/08/17 13:02:43;;;;;;;;;34.25;30.50;;;;;;;;5122218;27;45382;-67
2022/08/17 13:05:16;;;;;;;;;30.00;28.50;;;;;;;;5112800;27;46379;-67
2022/08/17 13:07:42;;;;;;;;;26.50;26.50;;;;;;;;5120142;27;45344;-67
2022/08/17 13:10:14;;;;;;;;;31.00;28.00;;;;;;;;5114586;27;45208;-67
2022/08/17 13:12:39;;;;;;;;;35.75;30.75;;;;;;;;5123300;27;45328;-67
2022/08/17 13:15:04;;;;;;;;;30.75;27.75;;;;;;;;5117581;27;46888;-68
2022/08/17 13:17:32;;;;;;;;;25.75;25.75;;;;;;;;5121772;27;45253;-66
2022/08/17 13:19:57;;;;;;;;;29.25;28.75;;;;;;;;5121795;27;45330;-66
2022/08/17 13:22:24;;;;;;;;;23.75;23.50;;;;;;;;5122408;27;45328;-66
2022/08/17 13:24:54;;;;;;;;;25.75;24.00;;;;;;;;5123762;27;46448;-67
2022/08/17 13:27:21;;;;;;;;;28.50;26.00;;;;;;;;5122219;27;45442;-66
2022/08/17 13:29:50;;;;;;;;;27.00;26.25;;;;;;;;5125295;27;45448;-66
2022/08/17 13:32:21;;;;;;;;;27.25;25.75;;;;;;;;5123187;27;45372;-66
2022/08/17 13:34:52;;;;;;;;;25.75;25.75;;;;;;;;5110172;27;46379;-67
2022/08/17 13:37:25;;;;;;;;;34.75;30.00;;;;;;;;5120577;27;45421;-66
2022/08/17 13:40:10;;;;;;;;;27.00;27.00;;;;;;;;5112611;27;45248;-67
2022/08/17 13:42:37;;;;;;;;;22.75;21.50;;;;;;;;5087731;27;45511;-66
2022/08/17 13:45:24;;;;;;;;;24.00;23.25;;;;;;;;5126351;27;45329;-66
2022/08/17 13:48:02;;;;;;;;;25.00;23.75;;;;;;;;5111364;27;45311;-67
2022/08/17 13:50:27;;;;;;;;;21.00;18.50;;;;;;;;5114290;27;45329;-66
2022/08/17 13:52:52;;;;;;;;;18.00;16.75;;;;;;;;5115164;27;45278;-66
2022/08/17 13:55:19;;;;;;;;;23.25;21.25;;;;;;;;5113167;27;45361;-66
2022/08/17 13:57:51;;;;;;;;;19.75;16.00;;;;;;;;5118805;27;45338;-67
2022/08/17 14:00:18;;;;;;;;;21.75;18.00;;;;;;;;5112871;27;45302;-67
2022/08/17 14:02:43;;;;;;;;;16.50;16.50;;;;;;;;5122683;27;45455;-66
2022/08/17 14:05:09;;;;;;;;;20.50;18.25;;;;;;;;5124385;27;45303;-67
2022/08/17 14:07:35;;;;;;;;;17.50;17.50;;;;;;;;5125760;27;46009;-67
2022/08/17 14:10:14;;;;;;;;;15.75;15.75;;;;;;;;5111876;27;45322;-66
2022/08/17 14:12:41;;;;;;;;;17.75;17.75;;;;;;;;5122049;27;45516;-66
2022/08/17 14:15:07;;;;;;;;;18.00;18.00;;;;;;;;5117651;27;45343;-66
2022/08/17 14:17:32;;;;;;;;;19.00;17.50;;;;;;;;5120122;27;45562;-66
2022/08/17 14:19:58;;;;;;;;;20.00;18.50;;;;;;;;5119789;27;45512;-68
2022/08/17 14:22:23;;;;;;;;;19.25;18.75;;;;;;;;5119433;27;45471;-66
2022/08/17 14:24:50;;;;;;;;;37.00;32.75;;;;;;;;5122644;27;45366;-66
2022/08/17 14:27:16;;;;;;;;;25.25;22.75;;;;;;;;5122351;27;45286;-66
2022/08/17 14:29:42;;;;;;;;;16.00;16.00;;;;;;;;5124819;27;45508;-66
2022/08/17 14:32:19;;;;;;;;;14.75;14.75;;;;;;;;5120790;27;45406;-66
2022/08/17 14:34:45;;;;;;;;;16.50;16.00;;;;;;;;5108933;27;46479;-66
2022/08/17 14:37:11;;;;;;;;;20.25;16.75;;;;;;;;5121847;27;45450;-66
2022/08/17 14:39:36;;;;;;;;;15.50;15.25;;;;;;;;5113458;27;45183;-67
2022/08/17 14:42:01;;;;;;;;;17.75;17.00;;;;;;;;5125135;27;45118;-67
2022/08/17 14:44:26;;;;;;;;;15.75;15.75;;;;;;;;5110486;27;45977;-67
2022/08/17 14:46:51;;;;;;;;;16.50;16.00;;;;;;;;5117405;27;45218;-66
2022/08/17 14:49:18;;;;;;;;;19.75;19.75;;;;;;;;5114019;27;45310;-68
2022/08/17 14:51:43;;;;;;;;;23.50;20.75;;;;;;;;5118918;27;45504;-66
2022/08/17 14:54:08;;;;;;;;;15.00;15.00;;;;;;;;5117931;27;45542;-66
2022/08/17 14:56:34;;;;;;;;;16.50;16.50;;;;;;;;5119186;27;45188;-66
2022/08/17 14:58:59;;;;;;;;;18.75;17.25;;;;;;;;5121736;27;45382;-67
2022/08/17 15:01:25;;;;;;;;;17.25;16.00;;;;;;;;5120769;27;45423;-66